Time;durP1;ratioP1;P1;durP2;ratioP2;P2;SDS_P1;SDS_P2;PMS_P1;PMS_P2;Temp;Humidity;BMP_temperature;BMP_pressure;BME280_temperature;BME280_humidity;BME280_pressure;Samples;Min_cycle;Max_cycle;Signal;HPM_P1;HPM_P2
2022/08/29 00:01:25;;;;;;;13.38;8.48;;;;;;;18.35;80.69;98525.66;5005218;28;20030;-77
2022/08/29 00:03:54;;;;;;;15.02;9.10;;;;;;;18.36;80.87;98521.72;5008830;28;20125;-77
2022/08/29 00:06:19;;;;;;;11.45;7.88;;;;;;;18.35;80.65;98532.03;5005074;28;20388;-77
2022/08/29 00:08:45;;;;;;;16.85;8.43;;;;;;;18.35;80.84;98537.59;5006816;28;20022;-76
2022/08/29 00:11:11;;;;;;;10.88;7.40;;;;;;;18.35;80.46;98533.97;5006457;28;20387;-78
2022/08/29 00:13:36;;;;;;;11.25;7.18;;;;;;;18.36;80.65;98524.50;5008032;28;20034;-78
2022/08/29 00:16:02;;;;;;;11.40;7.57;;;;;;;18.32;80.38;98527.16;5008784;28;20014;-78
2022/08/29 00:18:27;;;;;;;11.63;7.00;;;;;;;18.28;80.48;98523.47;5009929;28;20453;-78
2022/08/29 00:20:53;;;;;;;10.88;7.63;;;;;;;18.24;80.35;98522.53;5009292;28;20096;-77
2022/08/29 00:23:18;;;;;;;9.50;7.15;;;;;;;18.20;80.48;98519.66;5007239;28;20026;-77
2022/08/29 00:25:44;;;;;;;8.68;6.72;;;;;;;18.21;80.51;98526.00;5009190;28;20061;-77
2022/08/29 00:28:10;;;;;;;10.60;6.90;;;;;;;18.19;80.33;98523.56;5012744;28;20069;-77
2022/08/29 00:30:37;;;;;;;11.02;6.63;;;;;;;18.20;80.36;98527.97;5011907;28;20053;-77
2022/08/29 00:33:02;;;;;;;12.18;6.72;;;;;;;18.21;79.96;98531.53;5011953;28;20034;-77
2022/08/29 00:35:34;;;;;;;10.00;6.22;;;;;;;18.23;80.36;98529.22;5013796;28;20384;-78
2022/08/29 00:38:03;;;;;;;11.38;6.47;;;;;;;18.21;79.98;98537.09;5011620;28;20022;-77
2022/08/29 00:40:44;;;;;;;9.20;6.18;;;;;;;18.20;80.29;98536.31;5013843;28;20476;-78
2022/08/29 00:43:10;;;;;;;8.43;6.13;;;;;;;18.22;80.08;98538.72;5012819;28;20076;-77
2022/08/29 00:46:02;;;;;;;12.40;6.40;;;;;;;18.21;80.05;98532.38;5008222;28;20030;-78
2022/08/29 00:48:28;;;;;;;10.88;6.22;;;;;;;18.20;79.79;98536.31;5009951;28;20566;-77
2022/08/29 00:50:59;;;;;;;8.75;5.53;;;;;;;18.21;79.69;98537.09;5009361;28;20079;-76
2022/08/29 00:53:37;;;;;;;10.65;6.13;;;;;;;18.20;79.91;98539.06;5010912;28;20021;-77
2022/08/29 00:56:05;;;;;;;11.07;6.00;;;;;;;18.15;79.71;98537.31;5013216;28;20041;-77
2022/08/29 00:58:36;;;;;;;8.93;5.13;;;;;;;18.15;79.72;98539.31;5009911;28;20388;-77
2022/08/29 01:01:03;;;;;;;9.82;5.55;;;;;;;18.13;79.87;98536.88;5009360;28;20681;-77
2022/08/29 01:03:34;;;;;;;8.13;5.40;;;;;;;18.13;79.65;98536.06;5011362;28;20045;-78
2022/08/29 01:06:01;;;;;;;9.82;5.72;;;;;;;18.14;79.51;98538.47;5012642;28;20407;-77
2022/08/29 01:08:29;;;;;;;9.65;5.53;;;;;;;18.15;79.53;98533.75;5010855;28;20117;-77
2022/08/29 01:13:44;;;;;;;8.60;5.43;;;;;;;18.17;79.28;98534.22;5010193;28;20606;-78
2022/08/29 01:16:12;;;;;;;11.32;5.65;;;;;;;18.15;79.22;98531.78;5011434;28;20030;-77
2022/08/29 01:18:39;;;;;;;10.20;5.25;;;;;;;18.11;79.29;98530.88;5012700;28;20026;-78
2022/08/29 01:21:24;;;;;;;11.23;5.78;;;;;;;18.07;79.51;98535.47;5010467;28;20483;-77
2022/08/29 01:24:01;;;;;;;10.75;5.60;;;;;;;18.05;79.23;98540.56;5008798;28;20145;-77
2022/08/29 01:26:29;;;;;;;8.07;5.20;;;;;;;18.06;79.37;98546.91;5012492;28;20097;-76
2022/08/29 01:28:55;;;;;;;10.35;4.95;;;;;;;18.06;79.27;98544.13;5012711;28;20076;-78
2022/08/29 01:31:25;;;;;;;9.15;5.20;;;;;;;18.06;79.04;98553.28;5011984;28;20057;-77
2022/08/29 01:33:56;;;;;;;7.15;4.65;;;;;;;18.06;79.02;98541.34;5010971;28;20037;-77
2022/08/29 01:36:26;;;;;;;7.80;5.10;;;;;;;18.09;78.89;98543.44;5024406;28;20038;-78
2022/08/29 01:38:51;;;;;;;6.97;4.72;;;;;;;18.10;78.82;98547.84;5010035;28;20053;-77
2022/08/29 01:41:19;;;;;;;5.70;4.18;;;;;;;18.07;78.84;98554.91;5012353;28;20030;-78
2022/08/29 01:43:51;;;;;;;9.07;4.93;;;;;;;18.07;78.87;98556.84;5006365;28;20037;-77
2022/08/29 01:46:21;;;;;;;8.32;4.70;;;;;;;18.08;78.92;98562.09;5010459;28;20025;-77
2022/08/29 01:48:47;;;;;;;8.50;4.50;;;;;;;18.10;78.82;98558.94;5011247;28;20491;-78
2022/08/29 01:51:13;;;;;;;7.82;4.43;;;;;;;18.10;78.86;98558.94;5007600;28;20026;-77
2022/08/29 01:53:39;;;;;;;6.45;4.00;;;;;;;18.10;78.73;98561.72;5009988;28;20037;-78
2022/08/29 01:56:11;;;;;;;8.90;4.25;;;;;;;18.08;78.60;98555.69;5008425;28;20615;-77
2022/08/29 01:58:37;;;;;;;7.72;4.05;;;;;;;18.06;78.45;98567.16;5010790;28;20034;-77
2022/08/29 02:01:04;;;;;;;7.60;4.00;;;;;;;18.03;78.15;98559.53;5007515;28;20025;-77
2022/08/29 02:03:29;;;;;;;6.63;4.13;;;;;;;18.00;78.30;98560.22;5004209;28;20455;-77
2022/08/29 02:05:58;;;;;;;8.02;4.00;;;;;;;17.98;78.25;98559.72;5012438;28;20033;-77
2022/08/29 02:08:24;;;;;;;6.45;4.10;;;;;;;17.94;78.27;98558.78;5011995;28;20025;-78
2022/08/29 02:10:49;;;;;;;7.97;3.88;;;;;;;17.89;78.07;98545.94;5010299;28;20102;-77
2022/08/29 02:13:14;;;;;;;6.93;3.80;;;;;;;17.85;78.12;98556.09;5011121;28;20472;-77
2022/08/29 02:15:40;;;;;;;7.75;3.60;;;;;;;17.80;77.98;98539.66;5012298;28;20085;-78
2022/08/29 02:18:05;;;;;;;9.57;4.20;;;;;;;17.79;78.24;98546.38;5009324;28;20028;-77
2022/08/29 02:20:31;;;;;;;8.32;3.72;;;;;;;17.73;78.15;98551.31;5010612;28;20032;-78
2022/08/29 02:22:56;;;;;;;8.02;3.72;;;;;;;17.69;77.88;98545.63;5009136;28;20096;-78
2022/08/29 02:25:40;;;;;;;6.07;3.72;;;;;;;17.70;78.50;98547.25;5009187;28;20069;-78
2022/08/29 02:28:06;;;;;;;7.35;3.90;;;;;;;17.66;78.10;98545.53;5011002;28;20507;-78
2022/08/29 02:30:32;;;;;;;8.38;3.90;;;;;;;17.64;77.96;98548.63;5011575;28;20049;-78
2022/08/29 02:32:58;;;;;;;5.38;3.55;;;;;;;17.64;78.14;98547.81;5011157;28;20472;-77
2022/08/29 02:35:23;;;;;;;8.52;3.58;;;;;;;17.63;78.15;98552.53;5010973;28;20037;-77
2022/08/29 02:37:49;;;;;;;11.73;3.92;;;;;;;17.60;78.28;98547.69;5009079;28;20022;-77
2022/08/29 02:40:14;;;;;;;7.80;4.47;;;;;;;17.61;78.39;98551.28;5012105;28;20026;-78
2022/08/29 02:42:40;;;;;;;4.75;3.50;;;;;;;17.59;78.05;98553.59;5010825;28;20028;-77
2022/08/29 02:45:05;;;;;;;5.97;3.45;;;;;;;17.58;77.99;98563.06;5010360;28;20113;-76
2022/08/29 02:47:35;;;;;;;7.72;3.72;;;;;;;17.51;78.40;98560.84;5001687;28;20053;-77
2022/08/29 02:50:06;;;;;;;6.55;3.63;;;;;;;17.52;78.03;98562.47;5007465;28;20114;-78
2022/08/29 02:52:33;;;;;;;6.43;3.78;;;;;;;17.53;78.12;98561.28;5010193;28;20036;-77
2022/08/29 02:54:58;;;;;;;9.57;3.72;;;;;;;17.52;78.11;98566.03;5008961;28;20060;-77
2022/08/29 02:57:24;;;;;;;7.97;3.90;;;;;;;17.50;78.31;98565.56;5008321;28;20034;-76
2022/08/29 02:59:50;;;;;;;6.55;3.53;;;;;;;17.49;78.07;98563.13;5009579;28;20033;-77
2022/08/29 03:02:15;;;;;;;7.93;3.67;;;;;;;17.46;77.94;98558.28;5010492;28;20030;-76
2022/08/29 03:04:41;;;;;;;7.40;3.92;;;;;;;17.39;77.88;98561.56;5009782;28;20484;-76
2022/08/29 03:07:06;;;;;;;6.70;3.95;;;;;;;17.40;78.22;98563.19;5008020;28;20030;-76
2022/08/29 03:09:32;;;;;;;6.00;3.80;;;;;;;17.39;78.30;98565.16;5006290;28;20030;-78
2022/08/29 03:11:57;;;;;;;4.53;3.35;;;;;;;17.37;78.16;98561.09;5007903;28;20109;-78
2022/08/29 03:14:24;;;;;;;7.15;3.72;;;;;;;17.38;77.82;98577.41;5010495;28;20298;-77
2022/08/29 03:16:49;;;;;;;7.72;3.78;;;;;;;17.35;78.20;98569.78;5010470;28;20076;-77
2022/08/29 03:19:15;;;;;;;7.45;4.00;;;;;;;17.35;78.14;98578.09;5010659;28;20026;-79
2022/08/29 03:21:43;;;;;;;6.63;4.00;;;;;;;17.34;78.06;98579.22;5008834;28;20095;-78
2022/08/29 03:24:08;;;;;;;10.07;4.20;;;;;;;17.33;78.20;98576.78;5010280;28;20034;-77
2022/08/29 03:26:34;;;;;;;9.23;4.38;;;;;;;17.35;78.10;98591.13;5008569;28;20091;-78
2022/08/29 03:28:59;;;;;;;6.55;3.67;;;;;;;17.35;77.83;98577.25;5010248;28;20032;-77
2022/08/29 03:31:25;;;;;;;8.35;3.72;;;;;;;17.31;77.82;98579.91;5006713;28;20060;-77
2022/08/29 03:33:50;;;;;;;8.35;3.65;;;;;;;17.30;78.09;98583.03;5006622;28;20037;-77
2022/08/29 03:36:16;;;;;;;8.35;4.13;;;;;;;17.27;78.22;98584.50;5010450;28;20044;-78
2022/08/29 03:38:45;;;;;;;7.20;4.10;;;;;;;17.26;77.97;98594.78;5010132;28;20560;-77
2022/08/29 03:41:17;;;;;;;11.00;4.45;;;;;;;17.24;78.16;98594.31;5009444;28;20030;-77
2022/08/29 03:43:43;;;;;;;9.10;4.43;;;;;;;17.24;77.84;98596.25;5009673;28;20026;-78
2022/08/29 03:46:08;;;;;;;6.20;3.63;;;;;;;17.20;77.97;98607.22;5008981;28;20033;-77
2022/08/29 03:48:34;;;;;;;8.80;4.50;;;;;;;17.18;77.92;98609.50;5010639;28;20022;-77
2022/08/29 03:50:59;;;;;;;7.65;4.20;;;;;;;17.16;78.01;98609.03;5005120;28;20040;-77
2022/08/29 03:53:25;;;;;;;7.78;3.90;;;;;;;17.12;77.94;98616.41;5007272;28;20476;-78
2022/08/29 03:55:51;;;;;;;9.57;4.18;;;;;;;17.14;78.17;98619.66;5010033;28;20034;-78
2022/08/29 03:58:16;;;;;;;8.57;4.40;;;;;;;17.13;77.80;98617.19;5009514;28;20026;-77
2022/08/29 04:00:42;;;;;;;6.53;3.95;;;;;;;17.13;77.97;98618.03;5012687;28;20473;-76
2022/08/29 04:03:08;;;;;;;8.43;3.85;;;;;;;17.15;78.08;98621.28;5013611;28;20434;-76
2022/08/29 04:05:33;;;;;;;7.78;4.20;;;;;;;17.18;78.22;98619.78;5012771;28;20034;-76
2022/08/29 04:07:59;;;;;;;6.07;3.63;;;;;;;17.21;77.86;98619.09;5012324;28;20032;-78
2022/08/29 04:10:30;;;;;;;7.18;3.80;;;;;;;17.24;78.32;98622.03;5012532;28;20029;-78
2022/08/29 04:12:56;;;;;;;6.30;3.63;;;;;;;17.29;78.26;98623.78;5013242;28;20034;-77
2022/08/29 04:15:23;;;;;;;7.82;3.92;;;;;;;17.29;78.04;98631.31;5013528;28;20056;-78
2022/08/29 04:17:54;;;;;;;8.70;4.20;;;;;;;17.26;77.93;98630.00;5012551;28;20036;-76
2022/08/29 04:20:24;;;;;;;7.80;4.40;;;;;;;17.25;78.04;98628.38;5011304;28;20050;-77
2022/08/29 04:22:50;;;;;;;10.27;4.15;;;;;;;17.22;77.86;98629.88;5007612;28;20054;-76
2022/08/29 04:25:16;;;;;;;6.20;3.88;;;;;;;17.20;77.98;98632.16;5012255;28;20034;-76
2022/08/29 04:27:42;;;;;;;10.18;4.07;;;;;;;17.19;77.68;98633.31;5013656;28;20029;-76
2022/08/29 04:30:14;;;;;;;8.45;4.20;;;;;;;17.18;78.00;98648.31;5013732;28;20069;-76
2022/08/29 04:32:42;;;;;;;8.85;4.40;;;;;;;17.18;78.40;98650.25;5012638;28;20030;-75
2022/08/29 04:35:09;;;;;;;10.10;4.40;;;;;;;17.14;77.68;98646.53;5009577;28;20037;-72
2022/08/29 04:37:35;;;;;;;5.72;4.05;;;;;;;17.10;77.56;98652.78;5012410;28;20033;-72
2022/08/29 04:40:00;;;;;;;11.25;4.95;;;;;;;17.08;77.79;98655.06;5011089;28;20033;-71
2022/08/29 04:42:26;;;;;;;9.75;4.15;;;;;;;17.05;77.96;98660.44;5013580;28;20022;-72
2022/08/29 04:44:52;;;;;;;9.10;4.72;;;;;;;17.04;78.05;98665.19;5007511;28;20553;-72
2022/08/29 04:47:20;;;;;;;9.75;4.78;;;;;;;17.05;78.09;98668.75;5011172;28;20034;-72
2022/08/29 04:49:48;;;;;;;7.03;4.70;;;;;;;17.04;78.22;98675.44;5012407;28;20068;-70
2022/08/29 04:52:14;;;;;;;8.55;4.90;;;;;;;17.03;78.01;98676.59;5012611;28;20037;-71
2022/08/29 04:54:39;;;;;;;10.32;5.70;;;;;;;17.04;78.08;98681.00;5013028;28;20392;-72
2022/08/29 04:57:05;;;;;;;10.48;6.00;;;;;;;17.05;78.61;98685.38;5011538;28;20017;-73
2022/08/29 04:59:31;;;;;;;9.60;5.60;;;;;;;17.06;78.27;98685.06;5011625;28;20456;-73
2022/08/29 05:01:56;;;;;;;10.45;5.53;;;;;;;17.08;78.29;98681.94;5005666;28;20085;-72
2022/08/29 05:04:24;;;;;;;12.10;6.32;;;;;;;17.08;78.16;98691.09;5009909;28;20103;-73
2022/08/29 05:06:49;;;;;;;12.50;6.60;;;;;;;17.09;78.30;98694.66;5012375;28;20030;-73
2022/08/29 05:09:14;;;;;;;11.10;6.30;;;;;;;17.09;78.14;98691.88;5005125;28;20049;-72
2022/08/29 05:11:40;;;;;;;10.80;5.97;;;;;;;17.09;78.41;98692.72;5008271;28;20029;-73
2022/08/29 05:14:05;;;;;;;9.93;6.43;;;;;;;17.13;78.33;98698.38;5010117;28;20040;-73
2022/08/29 05:16:35;;;;;;;11.95;7.25;;;;;;;17.12;77.85;98702.31;5011458;28;20042;-73
2022/08/29 05:19:03;;;;;;;11.73;6.75;;;;;;;17.14;78.27;98710.28;5011941;28;20059;-73
2022/08/29 05:21:33;;;;;;;9.60;6.47;;;;;;;17.13;77.93;98705.88;5008081;28;20029;-72
2022/08/29 05:23:58;;;;;;;11.15;7.40;;;;;;;17.13;78.11;98706.69;5010801;28;20037;-73
2022/08/29 05:26:30;;;;;;;15.05;8.38;;;;;;;17.13;77.89;98712.25;5011535;28;20045;-73
2022/08/29 05:28:55;;;;;;;12.50;7.57;;;;;;;17.16;77.83;98716.28;5007711;28;20076;-72
2022/08/29 05:31:21;;;;;;;12.75;7.22;;;;;;;17.17;78.25;98712.38;5007866;28;20033;-73
2022/08/29 05:33:47;;;;;;;13.15;7.47;;;;;;;17.18;78.12;98717.59;5009837;28;20116;-73
2022/08/29 05:36:13;;;;;;;15.50;8.15;;;;;;;17.20;78.09;98714.47;5011856;28;20472;-73
2022/08/29 05:38:38;;;;;;;16.27;7.30;;;;;;;17.20;77.74;98722.78;5010805;28;20095;-73
2022/08/29 05:41:04;;;;;;;10.88;6.95;;;;;;;17.17;77.69;98707.66;5009762;28;20037;-74
2022/08/29 05:43:31;;;;;;;13.50;7.20;;;;;;;17.16;77.87;98710.75;5012266;28;20026;-73
2022/08/29 05:46:05;;;;;;;11.00;7.10;;;;;;;17.17;78.09;98712.38;5009544;28;20428;-73
2022/08/29 05:48:32;;;;;;;14.65;7.05;;;;;;;17.21;77.80;98718.88;5008169;28;20072;-72
2022/08/29 05:50:58;;;;;;;17.42;8.38;;;;;;;17.27;77.99;98714.78;5008337;28;20037;-73
2022/08/29 05:53:24;;;;;;;16.80;7.60;;;;;;;17.30;77.72;98721.63;5007981;28;20038;-74
2022/08/29 05:55:50;;;;;;;12.98;7.10;;;;;;;17.34;77.93;98725.31;5014034;28;20427;-75
2022/08/29 05:58:17;;;;;;;13.18;6.68;;;;;;;17.38;77.69;98731.81;5005135;28;20030;-74
2022/08/29 06:00:45;;;;;;;13.68;6.85;;;;;;;17.40;77.53;98730.38;5003588;28;20037;-74
2022/08/29 06:03:11;;;;;;;12.98;6.97;;;;;;;17.38;77.32;98737.38;5005088;28;20051;-74
2022/08/29 06:05:37;;;;;;;11.50;6.82;;;;;;;17.38;77.48;98735.44;5003069;28;20053;-73
2022/08/29 06:08:03;;;;;;;11.40;6.43;;;;;;;17.34;77.27;98734.47;5006389;28;20029;-74
2022/08/29 06:10:28;;;;;;;19.58;9.80;;;;;;;17.36;77.20;98737.72;5004878;28;20425;-75
2022/08/29 06:12:54;;;;;;;12.93;7.15;;;;;;;17.35;77.18;98735.28;5006754;28;20045;-75
2022/08/29 06:15:21;;;;;;;9.60;6.53;;;;;;;17.35;77.17;98741.63;5008042;28;20079;-74
2022/08/29 06:17:46;;;;;;;11.35;6.68;;;;;;;17.38;77.34;98740.16;5006233;28;20024;-75
2022/08/29 06:20:12;;;;;;;10.85;6.28;;;;;;;17.44;77.17;98751.88;5011721;28;20384;-74
2022/08/29 06:22:38;;;;;;;10.70;7.00;;;;;;;17.48;77.18;98747.28;5007833;28;20026;-75
2022/08/29 06:25:05;;;;;;;10.75;5.93;;;;;;;17.49;77.04;98752.47;5009240;28;20614;-74
2022/08/29 06:27:30;;;;;;;10.60;5.95;;;;;;;17.50;77.02;98754.09;5010017;28;20053;-74
2022/08/29 06:29:56;;;;;;;11.43;6.63;;;;;;;17.47;76.57;98759.53;5002146;28;20123;-75
2022/08/29 06:32:22;;;;;;;12.02;6.45;;;;;;;17.46;76.78;98769.00;4998698;28;20140;-75
2022/08/29 06:34:47;;;;;;;10.60;6.55;;;;;;;17.44;76.77;98766.53;5008940;28;20053;-76
2022/08/29 06:37:13;;;;;;;11.68;6.50;;;;;;;17.46;76.60;98769.78;5005655;28;20034;-77
2022/08/29 06:39:39;;;;;;;11.52;6.15;;;;;;;17.48;76.89;98769.47;5007518;28;20038;-77
2022/08/29 06:42:04;;;;;;;11.52;5.93;;;;;;;17.51;76.77;98774.34;5009586;28;20026;-77
2022/08/29 06:44:30;;;;;;;10.23;6.28;;;;;;;17.56;76.51;98779.69;5005312;28;20084;-75
2022/08/29 06:46:56;;;;;;;9.77;6.15;;;;;;;17.63;76.62;98781.94;4997618;28;20022;-77
2022/08/29 06:49:23;;;;;;;13.50;6.20;;;;;;;17.74;76.93;98779.59;5005713;28;20451;-76
2022/08/29 06:51:51;;;;;;;11.05;6.50;;;;;;;17.85;76.79;98789.13;5000818;28;20019;-77
2022/08/29 06:54:18;;;;;;;10.45;6.18;;;;;;;17.89;76.72;98783.72;5004731;28;20045;-76
2022/08/29 06:56:44;;;;;;;9.27;6.43;;;;;;;17.89;76.15;98790.09;4999139;28;20033;-75
2022/08/29 06:59:10;;;;;;;10.07;6.20;;;;;;;17.91;76.23;98787.78;5002821;28;20097;-79
2022/08/29 07:01:36;;;;;;;10.35;5.38;;;;;;;17.95;76.22;98791.50;5005043;28;20037;-78
2022/08/29 07:04:02;;;;;;;8.32;5.78;;;;;;;18.03;76.39;98786.25;5003340;28;20080;-76
2022/08/29 07:06:29;;;;;;;10.52;6.30;;;;;;;18.11;76.29;98788.16;5004884;28;20092;-77
2022/08/29 07:08:56;;;;;;;9.10;5.45;;;;;;;18.18;76.22;98799.53;5004652;28;20081;-76
2022/08/29 07:11:28;;;;;;;9.48;5.03;;;;;;;18.25;76.27;98804.53;5007867;28;20026;-77
2022/08/29 07:14:00;;;;;;;13.15;6.13;;;;;;;18.30;76.18;98807.09;5007774;28;20109;-76
2022/08/29 07:16:27;;;;;;;11.50;6.70;;;;;;;18.36;75.91;98807.69;5006157;28;20029;-76
2022/08/29 07:18:53;;;;;;;11.77;5.90;;;;;;;18.37;75.74;98804.59;5003515;28;20236;-76
2022/08/29 07:21:21;;;;;;;10.07;5.80;;;;;;;18.41;75.65;98810.28;5000659;28;20417;-75
2022/08/29 07:23:49;;;;;;;10.90;6.00;;;;;;;18.42;75.41;98806.34;5007057;28;20189;-75
2022/08/29 07:26:23;;;;;;;9.65;6.15;;;;;;;18.43;75.33;98802.41;5003986;28;20030;-75
2022/08/29 07:28:52;;;;;;;10.77;5.68;;;;;;;18.44;75.20;98810.41;5010120;28;20026;-75
2022/08/29 07:31:18;;;;;;;9.75;5.85;;;;;;;18.44;75.06;98804.88;5008705;28;20369;-75
2022/08/29 07:33:44;;;;;;;9.02;5.85;;;;;;;18.52;75.09;98807.91;5009545;28;20726;-76
2022/08/29 07:36:10;;;;;;;9.27;5.70;;;;;;;18.60;74.94;98812.56;5008339;28;20049;-76
2022/08/29 07:38:38;;;;;;;8.05;5.57;;;;;;;18.66;75.03;98811.19;5008432;28;20030;-77
2022/08/29 07:41:13;;;;;;;11.35;5.68;;;;;;;18.72;74.86;98814.59;5008486;28;20028;-75
2022/08/29 07:43:39;;;;;;;8.93;5.63;;;;;;;18.74;74.43;98815.84;5007659;28;20057;-76
2022/08/29 07:46:07;;;;;;;9.40;5.43;;;;;;;18.74;74.23;98809.50;5006367;28;20040;-82
2022/08/29 07:48:35;;;;;;;8.40;5.40;;;;;;;18.77;74.19;98810.75;5005346;28;20030;-75
2022/08/29 07:51:00;;;;;;;9.02;5.57;;;;;;;18.82;74.33;98816.91;5007487;28;20034;-76
2022/08/29 07:53:26;;;;;;;9.65;6.10;;;;;;;18.89;74.04;98816.38;5005165;28;20381;-77
2022/08/29 07:55:51;;;;;;;7.25;5.28;;;;;;;18.89;73.64;98819.16;5009263;28;20037;-76
2022/08/29 07:58:18;;;;;;;8.57;5.38;;;;;;;18.85;73.51;98818.22;5009731;28;20048;-75
2022/08/29 08:00:43;;;;;;;10.77;6.35;;;;;;;18.84;73.43;98816.59;5004654;28;20030;-76
2022/08/29 08:03:09;;;;;;;10.15;5.72;;;;;;;18.85;73.36;98824.56;5006843;28;20400;-76
2022/08/29 08:05:36;;;;;;;9.25;5.82;;;;;;;18.89;73.62;98819.94;5009125;28;20040;-76
2022/08/29 08:08:03;;;;;;;12.25;6.20;;;;;;;18.95;73.41;98826.09;5008435;28;20022;-74
2022/08/29 08:10:28;;;;;;;11.27;6.28;;;;;;;19.03;73.40;98825.22;5009555;28;20117;-75
2022/08/29 08:12:54;;;;;;;9.52;6.30;;;;;;;19.18;73.63;98828.50;5009139;28;20113;-74
2022/08/29 08:15:21;;;;;;;10.60;6.32;;;;;;;19.28;73.22;98835.56;5009780;28;20117;-77
2022/08/29 08:17:46;;;;;;;9.02;6.00;;;;;;;19.30;72.90;98844.38;5009833;28;20399;-76
2022/08/29 08:20:12;;;;;;;8.88;5.70;;;;;;;19.32;72.94;98837.34;5009598;28;20109;-75
2022/08/29 08:22:38;;;;;;;7.25;5.55;;;;;;;19.41;73.10;98830.84;5009029;28;20496;-75
2022/08/29 08:25:04;;;;;;;7.60;6.05;;;;;;;19.49;72.64;98829.91;5008929;28;20034;-75
2022/08/29 08:27:30;;;;;;;8.70;5.82;;;;;;;19.56;72.61;98832.94;5009895;28;20451;-76
2022/08/29 08:29:56;;;;;;;9.00;6.35;;;;;;;19.60;72.53;98833.03;5009439;28;20022;-76
2022/08/29 08:32:22;;;;;;;12.40;7.35;;;;;;;19.70;72.00;98829.81;5009214;28;20069;-77
2022/08/29 08:34:47;;;;;;;10.65;6.93;;;;;;;19.74;72.00;98830.72;5008657;28;20180;-76
2022/08/29 08:37:13;;;;;;;8.35;6.75;;;;;;;19.75;71.78;98837.13;5009591;28;20384;-75
2022/08/29 08:39:38;;;;;;;9.30;6.82;;;;;;;19.75;71.89;98845.47;5009283;28;20020;-76
2022/08/29 08:42:13;;;;;;;12.13;6.88;;;;;;;19.68;71.40;98834.09;5008238;28;20440;-76
2022/08/29 08:45:04;;;;;;;10.50;6.78;;;;;;;19.62;71.41;98842.69;5009076;28;20509;-76
2022/08/29 08:47:36;;;;;;;10.15;6.82;;;;;;;19.66;71.40;98834.44;5001261;28;20136;-76
2022/08/29 08:50:20;;;;;;;11.02;7.20;;;;;;;19.73;71.50;98845.00;5012889;28;20026;-76
2022/08/29 08:52:55;;;;;;;12.77;6.50;;;;;;;19.81;71.08;98849.63;5012531;28;20037;-77
2022/08/29 08:55:27;;;;;;;8.98;6.68;;;;;;;19.85;71.27;98844.97;5013228;28;20026;-77
2022/08/29 08:58:31;;;;;;;10.05;6.03;;;;;;;19.88;71.12;98849.06;5012837;28;20072;-77
2022/08/29 09:01:01;;;;;;;9.15;6.85;;;;;;;19.89;70.43;98842.34;4988368;28;20036;-74
2022/08/29 09:03:45;;;;;;;10.70;6.53;;;;;;;19.86;70.62;98849.38;5012178;28;20125;-75
2022/08/29 09:06:30;;;;;;;11.20;5.93;;;;;;;19.87;70.45;98847.44;5012535;28;20022;-75
2022/08/29 09:09:07;;;;;;;8.57;5.70;;;;;;;19.88;70.38;98847.09;5012517;28;20030;-74
2022/08/29 09:12:01;;;;;;;8.23;6.38;;;;;;;19.92;70.35;98838.88;5011196;28;20099;-75
2022/08/29 09:14:39;;;;;;;11.48;6.10;;;;;;;20.02;69.80;98843.94;5010898;28;20048;-76
2022/08/29 09:17:08;;;;;;;8.10;5.18;;;;;;;20.09;69.82;98829.44;5012703;28;20026;-75
2022/08/29 09:19:33;;;;;;;7.43;5.50;;;;;;;20.17;69.92;98822.94;5012671;28;20038;-75
2022/08/29 09:22:08;;;;;;;10.43;6.55;;;;;;;20.19;69.25;98823.38;5012343;28;20041;-75
2022/08/29 09:24:47;;;;;;;10.95;6.40;;;;;;;20.21;68.97;98829.41;5012529;28;20018;-75
2022/08/29 09:27:17;;;;;;;;;;;;;;;20.22;69.34;98828.22;5011731;28;20018;-75
2022/08/29 09:29:42;;;;;;;;;;;;;;;20.21;68.88;98829.41;5012706;28;19914;-75
2022/08/29 09:32:12;;;;;;;11.52;6.20;;;;;;;20.15;68.69;98818.88;5012009;28;19958;-74
2022/08/29 09:34:41;;;;;;;8.75;5.40;;;;;;;20.14;68.45;98812.50;5007199;28;20454;-77
2022/08/29 09:37:32;;;;;;;9.10;4.82;;;;;;;20.13;68.39;98819.22;5011384;28;20595;-77
2022/08/29 09:40:10;;;;;;;7.60;4.72;;;;;;;20.22;68.22;98816.31;5011799;28;20080;-76
2022/08/29 09:42:58;;;;;;;8.48;4.88;;;;;;;20.35;68.41;98814.28;5008040;28;20025;-76
2022/08/29 09:45:25;;;;;;;8.38;5.65;;;;;;;20.49;68.07;98811.91;5003946;28;20298;-76
2022/08/29 09:48:16;;;;;;;10.20;6.55;;;;;;;20.59;67.71;98816.16;5007369;28;20025;-76
2022/08/29 09:50:42;;;;;;;10.32;5.95;;;;;;;20.66;67.76;98813.59;5000398;28;20076;-76
2022/08/29 09:53:08;;;;;;;10.45;6.32;;;;;;;20.70;67.55;98812.88;5011353;28;20116;-77
2022/08/29 09:55:41;;;;;;;9.27;6.00;;;;;;;20.68;66.93;98814.03;5011907;28;20429;-76
2022/08/29 09:58:15;;;;;;;9.32;5.95;;;;;;;20.72;66.95;98811.34;5010305;28;20026;-76
2022/08/29 10:00:58;;;;;;;7.57;5.53;;;;;;;20.84;66.58;98809.69;5011702;28;20034;-77
2022/08/29 10:03:25;;;;;;;9.43;5.63;;;;;;;20.94;66.76;98809.19;5011101;28;20054;-77
2022/08/29 10:06:05;;;;;;;9.05;5.28;;;;;;;21.00;66.69;98804.13;5007930;28;20173;-77
2022/08/29 10:08:36;;;;;;;9.18;6.20;;;;;;;21.06;66.08;98806.31;5011144;28;20034;-77
2022/08/29 10:11:19;;;;;;;9.75;5.63;;;;;;;21.11;66.10;98811.63;5011881;28;20533;-76
2022/08/29 10:14:06;;;;;;;7.72;5.40;;;;;;;21.13;65.97;98814.06;5010686;28;20029;-77
2022/08/29 10:18:19;;;;;;;10.45;5.80;;;;;;;21.16;65.61;98804.97;5011955;28;20271;-76
2022/08/29 10:19:43;;;;;;;8.45;5.55;;;;;;;21.23;65.44;98801.56;5010817;28;20037;-75
2022/08/29 10:22:37;;;;;;;7.78;5.35;;;;;;;21.24;65.41;98808.75;5011187;28;20030;-78
2022/08/29 10:25:21;;;;;;;7.38;5.43;;;;;;;21.31;63.96;98805.31;5010818;28;20034;-77
2022/08/29 10:28:05;;;;;;;7.35;5.07;;;;;;;21.39;64.74;98809.91;5011469;28;20384;-77
2022/08/29 10:30:59;;;;;;;9.85;5.70;;;;;;;21.54;64.97;98813.88;5009851;28;20072;-77
2022/08/29 10:33:45;;;;;;;9.40;6.30;;;;;;;21.60;62.63;98808.84;4995602;28;20550;-80
2022/08/29 10:36:18;;;;;;;9.75;6.13;;;;;;;21.62;63.81;98806.50;5002729;28;20427;-79
2022/08/29 10:39:11;;;;;;;10.00;5.90;;;;;;;21.66;62.40;98812.97;5005166;28;20033;-78
2022/08/29 10:41:56;;;;;;;10.23;5.70;;;;;;;21.63;63.14;98816.50;5000856;28;20033;-77
2022/08/29 10:44:53;;;;;;;11.48;6.00;;;;;;;21.58;63.27;98814.75;5006830;28;20120;-75
2022/08/29 10:47:23;;;;;;;11.30;6.07;;;;;;;21.67;62.38;98815.41;5004542;28;20060;-78
2022/08/29 10:50:02;;;;;;;9.20;5.55;;;;;;;21.75;63.08;98807.22;5005957;28;20033;-78
2022/08/29 10:52:33;;;;;;;9.87;5.30;;;;;;;21.85;62.36;98809.44;5003273;28;20038;-79
2022/08/29 10:55:17;;;;;;;10.85;5.75;;;;;;;21.94;60.97;98807.25;5005113;28;20046;-75
2022/08/29 10:58:01;;;;;;;9.52;4.97;;;;;;;22.00;62.30;98802.22;5004055;28;20030;-76
2022/08/29 11:00:51;;;;;;;7.20;4.68;;;;;;;22.06;62.39;98805.50;5007618;28;20029;-75
2022/08/29 11:03:27;;;;;;;10.32;5.03;;;;;;;22.08;61.82;98801.16;5002106;28;20053;-77
2022/08/29 11:06:06;;;;;;;8.38;4.72;;;;;;;22.06;61.54;98803.50;5003641;28;20064;-75
2022/08/29 11:08:43;;;;;;;7.70;5.05;;;;;;;22.01;60.71;98801.84;5006354;28;20403;-77
2022/08/29 11:11:08;;;;;;;9.07;6.10;;;;;;;21.97;61.07;98797.34;5002640;28;20048;-75
2022/08/29 11:13:41;;;;;;;11.32;5.43;;;;;;;22.01;59.93;98795.41;5007102;28;20026;-77
2022/08/29 11:16:28;;;;;;;7.65;4.07;;;;;;;22.04;61.01;98785.53;5007634;28;20072;-76
2022/08/29 11:19:23;;;;;;;8.05;4.22;;;;;;;22.16;60.62;98783.41;5008885;28;20034;-76
2022/08/29 11:22:15;;;;;;;10.07;4.85;;;;;;;22.28;60.42;98784.44;4999322;28;20108;-74
2022/08/29 11:24:43;;;;;;;8.32;4.10;;;;;;;22.39;59.98;98779.88;4998199;28;20034;-73
2022/08/29 11:27:31;;;;;;;8.00;3.72;;;;;;;22.50;59.78;98782.09;4999927;28;20037;-74
2022/08/29 11:30:20;;;;;;;8.90;3.47;;;;;;;22.53;59.69;98784.97;5003383;28;20025;-74
2022/08/29 11:32:52;;;;;;;7.10;3.65;;;;;;;22.58;59.53;98775.47;5002075;28;20377;-74
2022/08/29 11:35:23;;;;;;;7.00;4.00;;;;;;;22.66;59.10;98777.22;5002646;28;20038;-75
2022/08/29 11:38:14;;;;;;;6.18;3.40;;;;;;;22.72;59.78;98767.38;5003299;28;20065;-74
2022/08/29 11:40:48;;;;;;;5.25;2.50;;;;;;;22.85;59.38;98776.41;5006241;28;20476;-76
2022/08/29 11:43:19;;;;;;;8.95;3.20;;;;;;;22.96;58.59;98773.78;4996531;28;20037;-74
2022/08/29 11:45:55;;;;;;;9.25;3.17;;;;;;;22.99;56.91;98777.84;4996766;28;20381;-74
2022/08/29 11:48:41;;;;;;;8.57;3.40;;;;;;;22.99;58.05;98783.44;5003106;28;20165;-75